Time;durP1;ratioP1;P1;durP2;ratioP2;P2;SDS_P1;SDS_P2;PMS_P1;PMS_P2;Temp;Humidity;BMP_temperature;BMP_pressure;BME280_temperature;BME280_humidity;BME280_pressure;Samples;Min_cycle;Max_cycle;Signal;HPM_P1;HPM_P2
2022/01/10 00:00:57;;;;;;;;;29.00;23.75;;;;;7.69;72.60;100431.50;5057854;28;45578;-69
2022/01/10 00:03:24;;;;;;;;;28.00;28.00;;;;;7.72;72.67;100451.66;5057730;28;46122;-68
2022/01/10 00:05:50;;;;;;;;;21.25;21.25;;;;;7.75;72.47;100454.16;5040073;28;45419;-65
2022/01/10 00:08:15;;;;;;;;;32.25;26.50;;;;;7.74;72.14;100450.66;5057285;28;45447;-68
2022/01/10 00:10:43;;;;;;;;;26.25;22.25;;;;;7.74;72.67;100447.16;5058267;28;45645;-63
2022/01/10 00:13:10;;;;;;;;;26.75;22.75;;;;;7.83;72.50;100462.63;5057390;28;45394;-64
2022/01/10 00:15:35;;;;;;;;;24.75;24.75;;;;;7.81;72.32;100457.41;5057098;28;45430;-62
2022/01/10 00:18:00;;;;;;;;;30.00;24.50;;;;;7.86;72.46;100468.63;5052078;28;45396;-63
2022/01/10 00:20:26;;;;;;;;;23.00;21.75;;;;;7.86;72.25;100459.81;5040269;28;45656;-63
2022/01/10 00:22:52;;;;;;;;;23.00;21.50;;;;;7.92;72.54;100475.41;5039599;28;45979;-65
2022/01/10 00:25:20;;;;;;;;;27.25;22.00;;;;;7.89;71.87;100473.78;5058515;28;45286;-64
2022/01/10 00:27:46;;;;;;;;;20.00;17.25;;;;;7.99;72.18;100484.81;5058462;28;45749;-64
2022/01/10 00:30:13;;;;;;;;;16.00;16.00;;;;;7.99;72.32;100482.16;5058202;28;45471;-66
2022/01/10 00:32:41;;;;;;;;;20.75;13.00;;;;;8.02;71.64;100489.09;5057743;28;45652;-67
2022/01/10 00:35:07;;;;;;;;;17.75;15.25;;;;;8.02;72.01;100489.94;5059534;28;45486;-71
2022/01/10 00:37:36;;;;;;;;;15.75;14.00;;;;;8.04;71.34;100493.38;5078394;28;45348;-70
2022/01/10 00:40:04;;;;;;;;;13.75;13.00;;;;;7.97;70.98;100491.97;5048158;28;45488;-68
2022/01/10 00:42:30;;;;;;;;;19.25;16.00;;;;;8.02;70.88;100487.28;5057776;28;45489;-68
2022/01/10 00:44:59;;;;;;;;;18.75;15.75;;;;;8.08;71.24;100505.56;5055395;28;45578;-69
2022/01/10 00:47:25;;;;;;;;;17.00;12.00;;;;;7.98;71.13;100498.97;5057463;28;45181;-71
2022/01/10 00:49:50;;;;;;;;;12.50;12.50;;;;;7.97;71.20;100505.19;5038154;28;45629;-66
2022/01/10 00:52:16;;;;;;;;;13.50;12.50;;;;;7.92;71.26;100507.19;5057516;28;45807;-68
2022/01/10 00:54:41;;;;;;;;;17.00;14.00;;;;;7.91;71.35;100502.81;5054384;28;45431;-69
2022/01/10 00:57:07;;;;;;;;;20.00;17.25;;;;;7.91;71.76;100518.72;5057222;28;45165;-68
2022/01/10 00:59:32;;;;;;;;;17.50;13.00;;;;;7.88;71.73;100508.28;5021057;28;45503;-71
2022/01/10 01:01:58;;;;;;;;;16.75;16.50;;;;;7.87;71.55;100496.81;5057228;28;45898;-67
2022/01/10 01:04:23;;;;;;;;;20.00;17.25;;;;;7.93;71.40;100506.25;5055380;28;45418;-68
2022/01/10 01:06:49;;;;;;;;;21.25;17.75;;;;;7.96;71.31;100522.88;5057374;28;45394;-68
2022/01/10 01:09:18;;;;;;;;;18.50;18.50;;;;;7.91;71.50;100530.16;5055683;28;45949;-67
2022/01/10 01:25:11;;;;;;;;;23.75;19.75;;;;;7.84;72.22;100555.22;5057023;28;45415;-68
2022/01/10 01:27:37;;;;;;;;;24.50;22.25;;;;;7.82;72.35;100564.16;5056832;28;45312;-70
2022/01/10 01:30:05;;;;;;;;;20.00;20.00;;;;;7.77;72.27;100571.44;5046905;28;45420;-68
2022/01/10 01:32:30;;;;;;;;;17.00;16.25;;;;;7.75;72.35;100568.00;5056952;28;45596;-64
2022/01/10 01:35:02;;;;;;;;;19.75;16.00;;;;;7.71;72.66;100569.06;5055209;28;45523;-70
2022/01/10 01:37:27;;;;;;;;;17.50;13.75;;;;;7.75;72.51;100591.81;5055998;28;45351;-65
2022/01/10 01:39:53;;;;;;;;;14.25;14.00;;;;;7.66;72.46;100593.94;5052074;28;45561;-67
2022/01/10 01:42:40;;;;;;;;;18.00;18.00;;;;;7.67;72.61;100595.66;5037342;28;45442;-62
2022/01/10 01:45:07;;;;;;;;;28.25;20.50;;;;;7.72;73.12;100602.56;5052292;28;45561;-64
2022/01/10 01:47:33;;;;;;;;;28.75;20.75;;;;;7.72;72.90;100594.63;5036085;28;45431;-67
2022/01/10 01:49:59;;;;;;;;;25.25;23.50;;;;;7.80;73.16;100603.06;5055346;28;45391;-66
2022/01/10 01:52:26;;;;;;;;;31.25;23.00;;;;;7.79;73.05;100604.84;5037708;28;49222;-67
2022/01/10 01:54:52;;;;;;;;;31.00;28.00;;;;;7.86;73.11;100622.19;5033956;28;45602;-64
2022/01/10 01:57:18;;;;;;;;;29.00;27.50;;;;;7.82;72.44;100611.81;5052850;28;45510;-68
2022/01/10 01:59:44;;;;;;;;;29.00;27.50;;;;;7.82;73.11;100614.47;5053620;28;45641;-65
2022/01/10 02:02:09;;;;;;;;;34.50;29.50;;;;;7.83;72.73;100624.13;5051690;28;45700;-70
2022/01/10 02:04:35;;;;;;;;;28.00;25.75;;;;;7.82;72.83;100623.28;5053187;28;45630;-71
2022/01/10 02:07:00;;;;;;;;;33.25;29.00;;;;;7.82;73.03;100627.72;5054404;28;45395;-67
2022/01/10 02:09:26;;;;;;;;;32.00;31.75;;;;;7.84;72.80;100631.16;5054574;28;45736;-63
2022/01/10 02:11:52;;;;;;;;;43.75;36.00;;;;;7.76;73.27;100630.59;5045088;28;47312;-69
2022/01/10 02:14:18;;;;;;;;;32.75;29.75;;;;;7.68;72.94;100623.00;5044723;28;45421;-69
2022/01/10 02:16:51;;;;;;;;;29.00;26.25;;;;;7.61;73.08;100619.75;5056608;28;45510;-70
2022/01/10 02:19:17;;;;;;;;;30.75;29.00;;;;;7.61;73.27;100621.56;5054363;28;45539;-68
2022/01/10 02:21:43;;;;;;;;;30.00;27.25;;;;;7.62;73.03;100634.72;5056532;28;45458;-72
2022/01/10 02:24:08;;;;;;;;;29.25;24.00;;;;;7.63;73.50;100628.50;5055050;28;45283;-72
2022/01/10 02:26:34;;;;;;;;;28.75;26.50;;;;;7.66;72.94;100633.66;5055493;28;45418;-70
2022/01/10 02:28:59;;;;;;;;;27.75;23.25;;;;;7.66;73.52;100636.28;5054005;28;45312;-68
2022/01/10 02:31:25;;;;;;;;;33.50;29.50;;;;;7.64;73.39;100635.50;5055784;28;45401;-65
2022/01/10 02:33:56;;;;;;;;;30.25;27.25;;;;;7.64;73.25;100638.16;5054615;28;45331;-67
2022/01/10 02:36:26;;;;;;;;;30.00;27.75;;;;;7.60;73.42;100630.41;5037672;28;45375;-69
2022/01/10 02:39:00;;;;;;;;;35.00;28.75;;;;;7.63;73.17;100639.06;5038637;28;45304;-69
2022/01/10 02:41:32;;;;;;;;;25.00;24.00;;;;;7.62;73.03;100634.72;5035995;28;46944;-66
2022/01/10 02:44:03;;;;;;;;;32.50;29.00;;;;;7.60;73.84;100649.81;5055357;28;45404;-67
2022/01/10 02:46:32;;;;;;;;;35.50;32.25;;;;;7.55;73.40;100638.56;5055127;28;45515;-68
2022/01/10 02:48:58;;;;;;;;;33.25;29.25;;;;;7.52;73.80;100641.31;5037373;28;45678;-63
2022/01/10 02:51:24;;;;;;;;;34.50;29.25;;;;;7.42;73.40;100645.28;5053165;28;45765;-70
2022/01/10 02:53:49;;;;;;;;;35.75;30.00;;;;;7.38;74.19;100648.97;5055343;28;45526;-62
2022/01/10 02:56:14;;;;;;;;;38.50;34.50;;;;;7.41;74.38;100667.38;5033173;28;45444;-62
2022/01/10 02:58:40;;;;;;;;;30.00;29.25;;;;;7.38;74.45;100667.50;5037203;28;45502;-66
2022/01/10 03:01:05;;;;;;;;;37.75;36.25;;;;;7.37;74.46;100671.06;5055451;28;46234;-68
2022/01/10 03:03:31;;;;;;;;;41.50;39.75;;;;;7.35;75.08;100673.78;5051163;28;45401;-67
2022/01/10 03:05:58;;;;;;;;;39.00;37.25;;;;;7.34;74.64;100687.94;5056148;28;45393;-64
2022/01/10 03:08:25;;;;;;;;;36.75;34.75;;;;;7.34;74.72;100679.16;5036089;28;45516;-61
2022/01/10 03:10:51;;;;;;;;;10.25;8.00;;;;;7.30;74.85;100682.84;5038853;28;46371;-66
2022/01/10 03:13:16;;;;;;;;;40.50;36.25;;;;;7.28;75.25;100687.31;5038700;28;45561;-68
2022/01/10 03:15:42;;;;;;;;;60.25;40.25;;;;;7.25;75.21;100695.38;5039430;28;45548;-68
2022/01/10 03:18:07;;;;;;;;;41.25;38.75;;;;;7.16;75.35;100686.06;5059481;28;45356;-68
2022/01/10 03:20:33;;;;;;;;;53.25;42.00;;;;;7.18;75.43;100694.78;5057279;28;45927;-69
2022/01/10 03:22:58;;;;;;;;;47.50;42.75;;;;;7.16;75.25;100694.00;5040606;28;45417;-70
2022/01/10 03:25:24;;;;;;;;;56.50;45.50;;;;;7.04;75.63;100690.06;5057213;28;46114;-71
2022/01/10 03:27:49;;;;;;;;;61.00;45.25;;;;;7.04;76.03;100708.56;5041129;28;45514;-66
2022/01/10 03:30:15;;;;;;;;;60.50;48.00;;;;;7.04;75.95;100715.63;5053194;28;46047;-66
2022/01/10 03:32:42;;;;;;;;;62.25;47.50;;;;;7.03;76.07;100711.25;5035967;28;45396;-70
2022/01/10 03:35:08;;;;;;;;;54.25;46.50;;;;;7.06;75.26;100712.00;5057127;28;45392;-71
2022/01/10 03:37:33;;;;;;;;;62.75;49.50;;;;;7.10;75.10;100715.38;5058192;28;45664;-71
2022/01/10 03:39:58;;;;;;;;;62.50;49.50;;;;;7.09;75.25;100719.81;5055214;28;45605;-69
2022/01/10 03:42:24;;;;;;;;;53.25;43.75;;;;;7.13;75.17;100719.69;5039703;28;45424;-71
2022/01/10 03:44:49;;;;;;;;;55.25;46.50;;;;;7.04;75.47;100718.28;5057235;28;45277;-69
2022/01/10 03:47:17;;;;;;;;;66.00;50.00;;;;;6.97;75.84;100720.28;5058093;28;45573;-68
2022/01/10 03:49:43;;;;;;;;;66.00;49.00;;;;;6.97;75.53;100724.72;5058200;28;45556;-65
2022/01/10 03:52:09;;;;;;;;;64.00;51.25;;;;;6.89;75.14;100717.06;5052395;28;45985;-69
2022/01/10 03:54:34;;;;;;;;;62.50;51.00;;;;;7.01;75.40;100740.41;5055891;28;45460;-67
2022/01/10 03:57:00;;;;;;;;;65.50;51.00;;;;;6.90;75.36;100724.13;5058518;28;45430;-67
2022/01/10 03:59:25;;;;;;;;;67.25;54.75;;;;;6.92;75.41;100743.41;5058161;28;45455;-66
2022/01/10 04:01:52;;;;;;;;;69.25;55.25;;;;;6.85;75.84;100741.91;5054756;28;45660;-67
2022/01/10 04:04:17;;;;;;;;;61.25;50.00;;;;;6.76;75.29;100731.69;5058463;28;45474;-64
2022/01/10 04:06:44;;;;;;;;;67.25;53.50;;;;;6.79;76.27;100753.59;5056679;28;45596;-68
2022/01/10 04:09:09;;;;;;;;;62.00;50.50;;;;;6.76;75.54;100750.19;5058197;28;46019;-68
2022/01/10 04:11:35;;;;;;;;;62.75;52.25;;;;;6.70;76.54;100759.22;5056333;28;45577;-69
2022/01/10 04:14:00;;;;;;;;;64.00;53.75;;;;;6.63;76.32;100767.41;5058084;28;45316;-61
2022/01/10 04:16:25;;;;;;;;;73.25;55.75;;;;;6.60;76.26;100762.25;5052574;28;45537;-64
2022/01/10 04:18:51;;;;;;;;;69.75;53.25;;;;;6.56;76.14;100768.59;5057023;28;46311;-66
2022/01/10 04:21:16;;;;;;;;;67.00;55.00;;;;;6.57;75.82;100767.66;5055862;28;45344;-67
2022/01/10 04:23:42;;;;;;;;;66.50;54.25;;;;;6.59;76.11;100779.03;5055080;28;45499;-71
2022/01/10 04:26:07;;;;;;;;;68.75;57.50;;;;;6.52;76.14;100774.91;5039913;28;45584;-67
2022/01/10 04:28:33;;;;;;;;;70.50;56.50;;;;;6.53;76.72;100782.78;5055398;28;46194;-61
2022/01/10 04:30:58;;;;;;;;;72.25;57.25;;;;;6.52;76.73;100786.34;5037061;28;45546;-65
2022/01/10 04:33:29;;;;;;;;;70.25;56.75;;;;;6.49;77.02;100783.78;5031743;28;45981;-66
2022/01/10 04:35:55;;;;;;;;;70.25;57.00;;;;;6.46;76.69;100797.97;5057370;28;45463;-71
2022/01/10 04:38:20;;;;;;;;;71.50;54.00;;;;;6.39;77.26;100791.19;5036122;28;46082;-67
2022/01/10 04:40:46;;;;;;;;;67.75;56.50;;;;;6.39;76.61;100801.78;5057233;28;45479;-66
2022/01/10 04:43:11;;;;;;;;;70.25;58.75;;;;;6.36;76.32;100809.78;5057669;28;45474;-67
2022/01/10 04:45:37;;;;;;;;;75.00;59.00;;;;;6.31;76.83;100814.38;5058237;28;45466;-67
2022/01/10 04:48:04;;;;;;;;;69.50;57.00;;;;;6.30;75.38;100828.50;5058075;28;46507;-67
2022/01/10 04:51:05;;;;;;;;;75.50;57.25;;;;;6.29;75.85;100826.78;5058217;28;45422;-65
2022/01/10 04:53:20;;;;;;;;;67.00;54.25;;;;;6.34;75.90;100831.88;5056895;28;45220;-69
2022/01/10 04:55:46;;;;;;;;;70.25;58.50;;;;;6.27;74.88;100825.97;5057405;28;45485;-70
2022/01/10 04:58:11;;;;;;;;;72.50;59.75;;;;;6.31;75.40;100846.06;5057976;28;46445;-67
2022/01/10 05:00:37;;;;;;;;;73.50;58.75;;;;;6.25;75.14;100840.13;5037005;28;45462;-67
2022/01/10 05:03:02;;;;;;;;;70.50;57.00;;;;;6.27;75.42;100849.75;5058185;28;45437;-67
2022/01/10 05:05:28;;;;;;;;;66.75;54.25;;;;;6.25;75.38;100845.41;5055565;28;45485;-64
2022/01/10 05:07:53;;;;;;;;;74.75;59.00;;;;;6.25;75.45;100846.28;5019030;28;46753;-70
2022/01/10 05:10:19;;;;;;;;;68.00;54.75;;;;;6.24;75.05;100846.31;5047467;28;45489;-68
2022/01/10 05:12:45;;;;;;;;;76.50;60.25;;;;;6.22;75.22;100856.94;5055603;28;45715;-71
2022/01/10 05:15:10;;;;;;;;;65.25;52.50;;;;;6.14;75.10;100857.22;5056301;28;45340;-68
2022/01/10 05:17:36;;;;;;;;;76.00;59.25;;;;;6.11;74.53;100852.00;5056872;28;46154;-65
2022/01/10 05:20:03;;;;;;;;;73.75;60.50;;;;;6.03;75.23;100846.16;5056057;28;45748;-71
2022/01/10 05:22:28;;;;;;;;;70.25;54.50;;;;;6.07;75.08;100868.03;5055852;28;45521;-69
2022/01/10 05:24:54;;;;;;;;;75.75;60.50;;;;;6.06;75.35;100861.00;5037323;28;45491;-65
2022/01/10 05:27:19;;;;;;;;;74.50;60.25;;;;;6.04;75.23;100868.13;5027228;28;46013;-64
2022/01/10 05:29:45;;;;;;;;;72.25;60.00;;;;;6.07;75.32;100878.56;5059398;28;45299;-66
2022/01/10 05:32:10;;;;;;;;;75.75;59.75;;;;;6.05;75.14;100883.06;5055760;28;45327;-67
2022/01/10 05:34:36;;;;;;;;;75.25;56.50;;;;;6.03;74.76;100890.16;5055450;28;45416;-64
2022/01/10 05:37:01;;;;;;;;;74.00;57.50;;;;;5.98;75.42;100890.28;5054817;28;46154;-71
2022/01/10 05:39:26;;;;;;;;;67.50;57.00;;;;;5.93;75.67;100888.72;5055410;28;45513;-71
2022/01/10 05:41:52;;;;;;;;;72.25;58.25;;;;;5.87;74.88;100890.63;5054819;28;45651;-70
2022/01/10 05:44:17;;;;;;;;;72.75;57.25;;;;;5.94;75.33;100901.00;5057456;28;45323;-69
2022/01/10 05:46:47;;;;;;;;;75.00;60.50;;;;;5.93;74.88;100900.16;5054552;28;46215;-70
2022/01/10 05:49:14;;;;;;;;;73.75;57.00;;;;;5.86;74.85;100902.09;5036800;28;45524;-65
2022/01/10 05:51:40;;;;;;;;;73.00;57.50;;;;;5.91;76.00;100918.69;5056095;28;45430;-64
2022/01/10 05:54:07;;;;;;;;;75.25;60.75;;;;;5.91;74.97;100916.03;5040643;28;45656;-65
2022/01/10 05:56:34;;;;;;;;;72.00;59.25;;;;;5.88;76.33;100924.03;5020206;28;47120;-63
2022/01/10 05:59:01;;;;;;;;;71.75;61.50;;;;;5.87;75.51;100924.94;5056272;28;45477;-67
2022/01/10 06:01:27;;;;;;;;;70.50;58.25;;;;;5.89;75.79;100935.44;5054031;28;46060;-63
2022/01/10 06:03:52;;;;;;;;;75.25;56.50;;;;;5.94;75.33;100948.53;5053979;28;45495;-67
2022/01/10 06:06:18;;;;;;;;;79.00;61.00;;;;;5.93;75.56;100957.34;5057551;28;45422;-67
2022/01/10 06:08:44;;;;;;;;;76.25;61.75;;;;;5.93;74.93;100942.38;5055178;28;45486;-67
2022/01/10 06:11:09;;;;;;;;;80.50;62.00;;;;;5.86;74.63;100944.34;5054929;28;45273;-65
2022/01/10 06:13:35;;;;;;;;;78.00;60.00;;;;;5.91;74.29;100967.97;5054421;28;45625;-65
2022/01/10 06:16:00;;;;;;;;;75.25;60.25;;;;;5.85;74.61;100974.25;5052322;28;45489;-63
2022/01/10 06:18:26;;;;;;;;;82.25;64.00;;;;;5.78;74.29;100985.91;5051257;28;45395;-64
2022/01/10 06:20:51;;;;;;;;;74.25;60.75;;;;;5.76;73.86;100989.53;5036725;28;46102;-64
2022/01/10 06:23:17;;;;;;;;;67.75;55.00;;;;;5.73;74.41;101003.69;5034243;28;45780;-68
2022/01/10 06:25:42;;;;;;;;;65.00;53.25;;;;;5.66;75.09;100999.47;5035842;28;46646;-65
2022/01/10 06:28:08;;;;;;;;;73.50;58.50;;;;;5.67;74.13;101000.34;5053871;28;45496;-67
2022/01/10 06:30:34;;;;;;;;;74.75;59.50;;;;;5.67;75.12;101001.19;5053780;28;46003;-67
2022/01/10 06:32:59;;;;;;;;;69.25;59.25;;;;;5.62;74.56;101003.13;5053993;28;45420;-61
2022/01/10 06:35:25;;;;;;;;;77.50;62.25;;;;;5.59;75.05;101003.19;5053233;28;45675;-66
2022/01/10 06:37:51;;;;;;;;;71.50;58.00;;;;;5.56;74.84;101017.34;5037453;28;45477;-61
2022/01/10 06:40:17;;;;;;;;;77.75;61.00;;;;;5.53;75.36;101014.78;5053495;28;45431;-63
2022/01/10 06:42:42;;;;;;;;;78.25;60.75;;;;;5.50;74.88;101024.59;5056561;28;45484;-63
2022/01/10 06:45:10;;;;;;;;;68.50;57.00;;;;;5.45;74.75;101026.47;5053657;28;45481;-59
2022/01/10 06:47:35;;;;;;;;;71.50;59.00;;;;;5.48;74.82;101036.94;5056333;28;45268;-61
2022/01/10 06:50:01;;;;;;;;;8.00;0.75;;;;;5.47;74.92;101037.81;5036224;28;45459;-65
2022/01/10 06:52:27;;;;;;;;;74.50;60.00;;;;;5.47;75.04;101051.91;5055468;28;45416;-66
2022/01/10 06:54:52;;;;;;;;;72.00;59.75;;;;;5.47;75.60;101041.38;5054214;28;46587;-65
2022/01/10 06:57:18;;;;;;;;;71.50;57.50;;;;;5.50;75.13;101056.25;5052424;28;45411;-63
2022/01/10 06:59:43;;;;;;;;;73.00;59.25;;;;;5.53;74.77;101056.16;5055244;28;45530;-60
2022/01/10 07:02:09;;;;;;;;;80.75;59.25;;;;;5.54;75.86;101063.16;5033014;28;45552;-63
2022/01/10 07:04:34;;;;;;;;;67.75;57.00;;;;;5.57;75.74;101066.56;5035958;28;45483;-63
2022/01/10 07:06:59;;;;;;;;;71.00;55.50;;;;;5.61;75.85;101080.56;5035137;28;45462;-65
2022/01/10 07:09:25;;;;;;;;;55.25;45.75;;;;;5.70;77.26;101101.38;5055647;28;45722;-66
2022/01/10 07:11:50;;;;;;;;;55.00;43.25;;;;;5.70;77.81;101106.66;5035739;28;45948;-62
2022/01/10 07:14:17;;;;;;;;;44.50;36.75;;;;;5.73;77.74;101111.88;5055714;28;46383;-63
2022/01/10 07:16:43;;;;;;;;;52.00;42.50;;;;;5.63;78.19;101105.97;5053273;28;45602;-62
2022/01/10 07:19:10;;;;;;;;;43.75;38.75;;;;;5.72;77.86;101125.09;5051327;28;45465;-65
2022/01/10 07:21:39;;;;;;;;;53.75;44.00;;;;;5.76;77.37;101132.03;5034944;28;45271;-65
2022/01/10 07:24:06;;;;;;;;;39.25;33.25;;;;;5.74;77.59;101129.44;5055172;28;46329;-65
2022/01/10 07:26:32;;;;;;;;;41.50;35.00;;;;;5.79;78.10;101145.13;5053170;28;45724;-63
2022/01/10 07:28:58;;;;;;;;;32.75;29.25;;;;;5.79;78.21;101148.66;5052881;28;45347;-63
2022/01/10 07:31:24;;;;;;;;;44.00;33.75;;;;;5.77;78.47;101152.25;5053050;28;45535;-70
2022/01/10 07:33:49;;;;;;;;;47.75;34.50;;;;;5.84;78.16;101159.94;5047246;28;45519;-64
2022/01/10 07:36:15;;;;;;;;;44.50;33.75;;;;;5.93;78.41;101171.19;5049959;28;45463;-65
2022/01/10 07:38:40;;;;;;;;;37.50;31.25;;;;;5.94;77.46;101173.78;5047944;28;45285;-63
2022/01/10 07:41:07;;;;;;;;;44.75;35.50;;;;;5.90;77.32;101182.72;5037470;28;45309;-66
2022/01/10 07:43:33;;;;;;;;;47.50;43.25;;;;;5.89;76.29;101196.78;5042612;28;45923;-73
2022/01/10 07:45:59;;;;;;;;;61.00;44.25;;;;;5.84;75.85;101199.53;5048886;28;45535;-67
2022/01/10 07:48:26;;;;;;;;;63.00;47.00;;;;;5.75;75.18;101186.59;5050526;28;45454;-69
2022/01/10 07:50:52;;;;;;;;;49.75;42.00;;;;;5.81;74.67;101199.63;5047682;28;45510;-69
2022/01/10 07:53:17;;;;;;;;;54.25;46.00;;;;;5.78;73.42;101204.97;5030351;28;47268;-70
2022/01/10 07:55:43;;;;;;;;;58.25;45.25;;;;;5.77;73.17;101219.09;5056137;27;45332;-65
2022/01/10 07:58:08;;;;;;;;;56.00;43.50;;;;;5.75;73.64;101227.97;5055113;28;45296;-68
2022/01/10 08:00:34;;;;;;;;;50.75;44.25;;;;;5.73;72.97;101243.84;5049295;28;45470;-67
2022/01/10 08:02:59;;;;;;;;;48.75;40.00;;;;;5.61;73.76;101217.75;5055499;28;45339;-68
2022/01/10 08:05:24;;;;;;;;;50.75;39.25;;;;;5.41;73.42;101204.19;5053255;28;45744;-68
2022/01/10 08:07:50;;;;;;;;;51.00;44.00;;;;;5.67;74.46;101257.16;5051068;28;45891;-68
2022/01/10 08:10:15;;;;;;;;;54.25;40.75;;;;;5.67;73.91;101249.25;5054826;28;45436;-66
2022/01/10 08:12:41;;;;;;;;;43.75;40.00;;;;;5.65;74.55;101256.34;5052060;28;46506;-68
2022/01/10 08:15:07;;;;;;;;;46.75;42.00;;;;;5.64;73.89;101267.81;5036529;28;45193;-68
2022/01/10 08:17:33;;;;;;;;;54.50;43.00;;;;;5.62;74.31;101277.53;5056681;28;45435;-66
2022/01/10 08:19:59;;;;;;;;;44.75;37.75;;;;;5.67;74.38;101272.13;5039539;28;45532;-67
2022/01/10 08:22:24;;;;;;;;;48.25;40.00;;;;;5.69;75.01;101272.97;5039690;28;47808;-67
2022/01/10 08:24:52;;;;;;;;;42.75;37.00;;;;;5.69;74.44;101273.81;5057080;28;45425;-63
2022/01/10 08:27:17;;;;;;;;;38.75;32.25;;;;;5.70;74.13;101285.25;5056189;28;45428;-70
2022/01/10 08:29:42;;;;;;;;;32.75;26.50;;;;;5.69;74.12;101276.47;5056298;28;45678;-64
2022/01/10 08:32:08;;;;;;;;;29.50;26.00;;;;;5.76;73.78;101293.91;5057482;28;45648;-65
2022/01/10 08:34:34;;;;;;;;;25.75;21.00;;;;;5.71;73.40;101297.53;5057451;28;45412;-67
2022/01/10 08:36:59;;;;;;;;;23.25;21.50;;;;;5.71;73.80;101297.53;5057527;28;45374;-66
2022/01/10 08:39:25;;;;;;;;;19.50;11.00;;;;;5.73;73.96;101307.19;5057587;28;45380;-66
2022/01/10 08:41:51;;;;;;;;;25.00;18.00;;;;;5.71;73.96;101308.09;5057077;28;46035;-66
2022/01/10 08:44:17;;;;;;;;;21.50;18.25;;;;;5.65;72.68;101313.53;5057342;28;45428;-65
2022/01/10 08:46:44;;;;;;;;;22.50;18.00;;;;;5.57;74.13;101316.34;5057980;28;45407;-66
2022/01/10 08:49:09;;;;;;;;;12.00;12.00;;;;;5.52;74.25;101312.97;5057463;28;45644;-68
2022/01/10 08:51:35;;;;;;;;;22.75;19.75;;;;;5.51;74.58;101319.16;5057169;28;45449;-67
2022/01/10 08:54:02;;;;;;;;;21.00;18.00;;;;;5.53;74.45;101319.97;5057089;28;45359;-67
2022/01/10 08:56:28;;;;;;;;;22.75;20.25;;;;;5.52;74.48;101328.78;5057015;28;45478;-64
2022/01/10 08:58:54;;;;;;;;;18.50;16.50;;;;;5.45;73.93;101337.75;5057561;28;45553;-67
2022/01/10 09:01:21;;;;;;;;;23.75;20.75;;;;;5.40;74.54;101339.63;5057364;28;45383;-63
2022/01/10 09:03:47;;;;;;;;;21.25;20.50;;;;;5.37;73.98;101351.13;5057146;28;45510;-67
2022/01/10 09:06:13;;;;;;;;;20.50;18.75;;;;;5.37;74.59;101355.53;5057281;28;45445;-66
2022/01/10 09:08:41;;;;;;;;;23.00;19.50;;;;;5.40;74.42;101366.00;5056730;28;45516;-67
2022/01/10 09:11:07;;;;;;;;;24.75;22.00;;;;;5.43;75.06;101371.19;5036098;28;45556;-65
2022/01/10 09:13:33;;;;;;;;;27.75;23.50;;;;;5.41;74.44;101381.78;5036622;28;45274;-62
2022/01/10 09:16:02;;;;;;;;;27.00;20.50;;;;;5.38;74.62;101373.09;5036938;28;45225;-68
2022/01/10 09:18:29;;;;;;;;;24.75;18.50;;;;;5.45;74.72;101385.22;5044870;28;45468;-66
2022/01/10 09:20:55;;;;;;;;;16.25;15.75;;;;;5.49;73.98;101373.72;5056861;28;45445;-67
2022/01/10 09:23:22;;;;;;;;;31.00;23.00;;;;;5.48;74.70;101379.91;5056814;28;45407;-67
2022/01/10 09:25:49;;;;;;;;;23.25;18.50;;;;;5.51;74.89;101393.03;5038615;28;45382;-65
2022/01/10 09:28:15;;;;;;;;;25.75;18.50;;;;;5.56;74.12;101388.50;5057404;28;45248;-63
2022/01/10 09:30:40;;;;;;;;;22.25;20.50;;;;;5.63;74.23;101390.09;5056620;28;45331;-64
2022/01/10 09:33:06;;;;;;;;;20.00;20.00;;;;;5.68;74.19;101400.53;5056871;28;45300;-67
2022/01/10 09:35:31;;;;;;;;;18.25;15.25;;;;;5.72;73.98;101404.84;5056707;28;45352;-69
2022/01/10 09:37:57;;;;;;;;;30.25;25.25;;;;;5.67;73.99;101391.75;5056560;28;45475;-66
2022/01/10 09:40:22;;;;;;;;;30.00;24.50;;;;;5.84;74.71;101405.41;5054996;28;45496;-69
2022/01/10 09:42:48;;;;;;;;;25.25;23.50;;;;;5.98;73.89;101406.91;5053803;28;45389;-64
2022/01/10 09:45:13;;;;;;;;;29.75;25.75;;;;;6.04;73.88;101415.56;5027318;28;45505;-66
2022/01/10 09:47:39;;;;;;;;;34.75;28.25;;;;;6.05;73.29;101408.50;5056091;28;45614;-66
2022/01/10 09:50:07;;;;;;;;;30.50;26.25;;;;;6.03;74.02;101410.31;5037967;28;46987;-62
2022/01/10 09:52:35;;;;;;;;;26.25;23.25;;;;;6.05;74.09;101425.22;5055439;28;45494;-66
2022/01/10 09:55:01;;;;;;;;;25.50;16.75;;;;;6.06;72.77;101431.34;5055962;28;45536;-61
2022/01/10 09:57:26;;;;;;;;;28.50;25.75;;;;;6.04;72.97;101434.03;5055405;28;45464;-65
2022/01/10 09:59:51;;;;;;;;;31.50;25.75;;;;;6.00;73.29;101434.16;5037950;28;48147;-64
2022/01/10 10:02:17;;;;;;;;;25.50;22.50;;;;;6.02;73.16;101435.00;5055538;28;45528;-64
2022/01/10 10:04:44;;;;;;;;;23.25;18.75;;;;;6.13;73.52;101446.16;5037982;28;45489;-68
2022/01/10 10:07:10;;;;;;;;;28.75;21.75;;;;;6.18;72.53;101452.19;5056106;28;45452;-62
2022/01/10 10:09:36;;;;;;;;;34.75;23.75;;;;;6.15;73.18;101462.84;5055471;28;45372;-63
2022/01/10 10:12:04;;;;;;;;;29.00;26.25;;;;;6.17;73.72;101467.16;5055806;28;45386;-64
2022/01/10 10:14:31;;;;;;;;;32.75;28.75;;;;;6.20;72.93;101460.94;5021362;28;45381;-66
2022/01/10 10:16:57;;;;;;;;;26.50;25.00;;;;;6.20;73.26;101463.59;5037881;28;45248;-65
2022/01/10 10:19:28;;;;;;;;;32.50;26.25;;;;;6.27;72.42;101457.25;5040268;28;46467;-66
2022/01/10 10:21:55;;;;;;;;;27.50;25.25;;;;;6.31;72.79;101463.31;5036975;28;45291;-65
2022/01/10 10:24:22;;;;;;;;;22.50;19.25;;;;;6.32;73.14;101463.28;5055542;28;45243;-62
2022/01/10 10:26:48;;;;;;;;;37.25;30.50;;;;;6.31;73.14;101466.84;5055878;28;45424;-65
2022/01/10 10:29:17;;;;;;;;;36.00;28.25;;;;;6.28;73.71;101461.63;5055481;28;45513;-68
2022/01/10 10:31:53;;;;;;;;;16.50;16.50;;;;;6.21;73.81;101467.97;5054317;28;45300;-67
2022/01/10 10:34:27;;;;;;;;;26.25;25.75;;;;;6.29;72.92;101476.56;5038355;28;45291;-68
2022/01/10 10:37:02;;;;;;;;;40.50;36.75;;;;;6.27;72.98;101486.31;5054705;28;45277;-66
2022/01/10 10:39:29;;;;;;;;;35.75;33.00;;;;;6.23;73.37;101476.72;5047345;28;46306;-65
2022/01/10 10:41:59;;;;;;;;;39.50;35.75;;;;;6.32;73.19;101480.91;5036457;28;45805;-65
2022/01/10 10:44:25;;;;;;;;;44.25;31.25;;;;;6.35;74.10;101486.13;5054552;28;45406;-66
2022/01/10 10:46:51;;;;;;;;;37.50;34.50;;;;;6.41;73.15;101484.22;5054521;28;45526;-65
2022/01/10 10:49:19;;;;;;;;;43.25;36.75;;;;;6.44;73.70;101486.75;5055539;28;46180;-62
2022/01/10 10:51:49;;;;;;;;;38.00;36.75;;;;;6.42;73.65;101498.28;5036995;28;45388;-66
2022/01/10 10:54:16;;;;;;;;;37.25;31.50;;;;;6.35;74.04;101492.25;5055526;28;45474;-64
2022/01/10 10:56:43;;;;;;;;;44.50;32.25;;;;;6.35;73.47;101501.97;5055694;28;45384;-65
2022/01/10 10:59:11;;;;;;;;;38.00;36.25;;;;;6.30;73.72;101496.81;5055060;28;45635;-64
2022/01/10 11:01:41;;;;;;;;;35.25;35.25;;;;;6.38;74.31;101502.78;5055168;28;45217;-64
2022/01/10 11:04:09;;;;;;;;;44.75;32.75;;;;;6.32;73.93;101496.75;5055962;28;45434;-65
2022/01/10 11:06:36;;;;;;;;;47.75;38.00;;;;;6.41;74.08;101505.34;5056708;28;45584;-63
2022/01/10 11:09:06;;;;;;;;;49.25;43.25;;;;;6.46;73.42;101514.00;5055436;28;46193;-66
2022/01/10 11:11:33;;;;;;;;;48.00;35.25;;;;;6.52;73.71;101517.44;5054440;28;46003;-66
2022/01/10 11:14:00;;;;;;;;;39.50;34.50;;;;;6.57;74.07;101513.75;5054989;28;45331;-65
2022/01/10 11:16:26;;;;;;;;;36.25;34.75;;;;;6.54;73.01;101505.91;5055406;28;45390;-63
2022/01/10 11:18:52;;;;;;;;;36.00;32.75;;;;;6.54;73.40;101511.19;5055204;28;45422;-61
2022/01/10 11:21:17;;;;;;;;;51.75;42.50;;;;;6.61;73.49;101522.47;5054606;28;45419;-63
2022/01/10 11:23:47;;;;;;;;;39.25;34.75;;;;;6.63;73.54;101510.06;5044737;28;45490;-63
2022/01/10 11:26:14;;;;;;;;;41.75;38.75;;;;;6.66;73.84;101517.97;5055273;28;45656;-64